createdAt,value
2023-04-19T00:01:16.648Z,5.05
2023-04-19T00:06:10.484Z,5.10
2023-04-19T00:08:37.158Z,4.57
2023-04-19T00:13:30.381Z,5.05
2023-04-19T00:18:23.416Z,6.32
2023-04-19T00:20:50.019Z,5.10
2023-04-19T00:23:16.866Z,4.82
2023-04-19T00:25:43.459Z,4.68
2023-04-19T00:28:09.980Z,4.55
2023-04-19T00:30:36.557Z,4.78
2023-04-19T00:33:03.422Z,5.13
2023-04-19T00:35:30.011Z,4.40
2023-04-19T00:37:56.658Z,4.72
2023-04-19T00:40:23.215Z,4.97
2023-04-19T00:42:49.776Z,4.80
2023-04-19T00:45:16.389Z,4.45
2023-04-19T00:47:43.128Z,4.10
2023-04-19T00:52:36.825Z,3.88
2023-04-19T00:55:05.041Z,4.13
2023-04-19T00:57:31.596Z,3.90
2023-04-19T00:59:59.030Z,5.10
2023-04-19T01:02:26.193Z,3.80
2023-04-19T01:04:53.082Z,4.88
2023-04-19T01:09:46.842Z,3.72
2023-04-19T01:12:13.472Z,4.15
2023-04-19T01:14:40.524Z,3.97
2023-04-19T01:17:08.742Z,4.10
2023-04-19T01:19:36.574Z,3.78
2023-04-19T01:22:04.287Z,4.13
2023-04-19T01:24:31.079Z,4.07
2023-04-19T01:29:24.178Z,4.00
2023-04-19T01:31:54.161Z,3.88
2023-04-19T01:34:21.003Z,3.88
2023-04-19T01:39:14.240Z,3.30
2023-04-19T01:41:40.894Z,4.18
2023-04-19T01:44:07.767Z,3.65
2023-04-19T01:46:34.464Z,4.55
2023-04-19T01:51:27.530Z,3.63
2023-04-19T01:53:54.885Z,4.28
2023-04-19T01:56:24.072Z,4.53
2023-04-19T01:58:51.061Z,3.92
2023-04-19T02:01:17.731Z,3.95
2023-04-19T02:03:44.714Z,4.30
2023-04-19T02:06:14.732Z,3.95
2023-04-19T02:08:42.616Z,5.00
2023-04-19T02:11:10.528Z,4.60
2023-04-19T02:13:37.226Z,4.45
2023-04-19T02:18:30.491Z,3.83
2023-04-19T02:20:57.037Z,4.20
2023-04-19T02:23:23.592Z,4.32
2023-04-19T02:25:50.780Z,3.83
2023-04-19T02:28:17.470Z,4.38
2023-04-19T02:30:44.082Z,4.47
2023-04-19T02:33:10.700Z,3.63
2023-04-19T02:35:37.511Z,3.63
2023-04-19T02:40:31.807Z,4.32
2023-04-19T02:42:58.389Z,3.78
2023-04-19T02:45:24.983Z,3.70
2023-04-19T02:47:51.719Z,3.83
2023-04-19T02:52:44.930Z,3.60
2023-04-19T02:55:11.648Z,4.10
2023-04-19T02:57:38.284Z,4.22
2023-04-19T03:00:06.086Z,4.10
2023-04-19T03:02:32.727Z,4.10
2023-04-19T03:07:26.214Z,3.83
2023-04-19T03:12:19.548Z,3.35
2023-04-19T03:14:46.177Z,3.95
2023-04-19T03:17:12.758Z,4.25
2023-04-19T03:19:39.286Z,4.32
2023-04-19T03:22:05.920Z,4.18
2023-04-19T03:24:33.966Z,4.25
2023-04-19T03:27:02.727Z,3.80
2023-04-19T03:29:29.323Z,4.35
2023-04-19T03:31:56.001Z,3.85
2023-04-19T03:34:22.683Z,4.70
2023-04-19T03:36:49.241Z,4.05
2023-04-19T03:39:15.799Z,3.78
2023-04-19T03:41:42.365Z,3.88
2023-04-19T03:44:08.936Z,4.50
2023-04-19T03:46:35.578Z,4.43
2023-04-19T03:49:02.215Z,3.85
2023-04-19T03:51:28.837Z,4.10
2023-04-19T03:53:55.483Z,4.10
2023-04-19T03:56:22.055Z,3.67
2023-04-19T03:58:51.649Z,3.63
2023-04-19T04:01:19.914Z,3.72
2023-04-19T04:03:46.684Z,4.45
2023-04-19T04:06:13.664Z,3.63
2023-04-19T04:08:40.267Z,4.07
2023-04-19T04:11:06.915Z,3.70
2023-04-19T04:13:33.439Z,4.15
2023-04-19T04:16:00.467Z,3.97
2023-04-19T04:18:28.696Z,4.53
2023-04-19T04:20:55.726Z,3.35
2023-04-19T04:23:22.899Z,3.10
2023-04-19T04:26:00.968Z,3.35
2023-04-19T04:28:31.083Z,3.38
2023-04-19T04:30:58.283Z,3.22
2023-04-19T04:33:26.571Z,3.20
2023-04-19T04:35:54.499Z,3.10
2023-04-19T04:38:24.778Z,3.38
2023-04-19T04:40:53.883Z,3.50
2023-04-19T04:43:22.793Z,4.05
2023-04-19T04:45:49.976Z,4.10
2023-04-19T04:48:16.628Z,4.30
2023-04-19T04:50:44.313Z,3.95
2023-04-19T04:53:13.089Z,3.72
2023-04-19T04:55:39.897Z,3.47
2023-04-19T04:58:06.962Z,3.92
2023-04-19T05:00:34.695Z,3.95
2023-04-19T05:03:03.129Z,3.85
2023-04-19T05:05:30.131Z,4.03
2023-04-19T05:10:23.489Z,3.60
2023-04-19T05:15:16.483Z,3.70
2023-04-19T05:17:43.559Z,4.25
2023-04-19T05:20:10.922Z,4.55
2023-04-19T05:22:37.792Z,4.53
2023-04-19T05:25:05.050Z,4.13
2023-04-19T05:27:31.687Z,4.35
2023-04-19T05:29:58.248Z,3.90
2023-04-19T05:32:24.898Z,3.63
2023-04-19T05:37:17.969Z,4.43
2023-04-19T05:39:44.873Z,3.72
2023-04-19T05:42:11.633Z,4.15
2023-04-19T05:44:38.215Z,4.10
2023-04-19T05:47:04.824Z,4.63
2023-04-19T05:49:31.630Z,4.32
2023-04-19T05:51:58.284Z,4.93
2023-04-19T05:54:24.912Z,4.00
2023-04-19T05:56:51.516Z,4.40
2023-04-19T05:59:18.072Z,4.75
2023-04-19T06:01:44.797Z,4.05
2023-04-19T06:04:11.629Z,4.03
2023-04-19T06:09:05.010Z,3.85
2023-04-19T06:14:15.088Z,4.85
2023-04-19T06:16:42.371Z,3.97
2023-04-19T06:19:09.009Z,3.58
2023-04-19T06:21:35.700Z,3.55
2023-04-19T06:24:02.584Z,4.18
2023-04-19T06:28:56.036Z,3.05
2023-04-19T06:31:22.598Z,4.95
2023-04-19T06:33:49.273Z,3.60
2023-04-19T06:36:15.867Z,3.95
2023-04-19T06:38:44.621Z,3.42
2023-04-19T06:41:11.232Z,3.53
2023-04-19T06:43:37.862Z,4.30
2023-04-19T06:46:07.781Z,3.95
2023-04-19T06:48:35.268Z,3.65
2023-04-19T06:51:05.059Z,3.78
2023-04-19T06:53:31.680Z,3.33
2023-04-19T06:56:03.148Z,3.70
2023-04-19T06:58:30.132Z,3.97
2023-04-19T07:00:57.309Z,3.30
2023-04-19T07:03:24.175Z,3.40
2023-04-19T07:05:52.477Z,3.42
2023-04-19T07:08:19.181Z,3.63
2023-04-19T07:13:12.564Z,3.35
2023-04-19T07:15:39.243Z,3.80
2023-04-19T07:20:32.702Z,3.08
2023-04-19T07:22:59.740Z,3.55
2023-04-19T07:25:27.529Z,3.40
2023-04-19T07:27:55.221Z,3.97
2023-04-19T07:30:22.676Z,3.50
2023-04-19T07:32:51.777Z,3.75
2023-04-19T07:35:19.590Z,3.40
2023-04-19T07:37:46.485Z,4.10
2023-04-19T07:40:13.425Z,3.53
2023-04-19T07:42:40.017Z,3.20
2023-04-19T07:45:07.298Z,2.80
2023-04-19T07:47:33.972Z,3.50
2023-04-19T07:52:27.095Z,3.38
2023-04-19T07:54:53.626Z,3.40
2023-04-19T07:57:20.243Z,3.30
2023-04-19T07:59:46.870Z,3.67
2023-04-19T08:02:13.595Z,3.78
2023-04-19T08:07:09.556Z,3.00
2023-04-19T08:09:37.951Z,2.80
2023-04-19T08:12:04.615Z,3.28
2023-04-19T08:14:40.551Z,3.15
2023-04-19T08:17:25.663Z,3.33
2023-04-19T08:19:54.900Z,2.85
2023-04-19T08:24:52.106Z,3.15
2023-04-19T08:27:19.219Z,3.00
2023-04-19T08:29:46.595Z,3.10
2023-04-19T08:32:13.584Z,3.10
2023-04-19T08:34:40.525Z,3.72
2023-04-19T08:37:07.655Z,2.90
2023-04-19T08:39:35.086Z,3.20
2023-04-19T08:42:13.287Z,3.15
2023-04-19T08:45:23.247Z,3.95
2023-04-19T08:47:58.840Z,3.13
2023-04-19T08:50:34.380Z,3.10
2023-04-19T08:55:32.432Z,3.33
2023-04-19T08:57:58.998Z,2.72
2023-04-19T09:00:25.898Z,3.42
2023-04-19T09:02:54.606Z,3.30
2023-04-19T09:05:21.690Z,3.13
2023-04-19T09:07:48.791Z,3.10
2023-04-19T09:10:20.218Z,3.13
2023-04-19T09:13:02.250Z,3.05
2023-04-19T09:15:40.027Z,2.80
2023-04-19T09:18:12.585Z,3.17
2023-04-19T09:20:44.256Z,3.30
2023-04-19T09:23:13.749Z,3.13
2023-04-19T09:28:31.909Z,2.92
2023-04-19T09:31:10.680Z,3.30
2023-04-19T09:33:42.296Z,3.92
2023-04-19T09:36:09.376Z,3.40
2023-04-19T09:38:49.888Z,3.00
2023-04-19T09:41:17.597Z,3.00
2023-04-19T09:44:07.406Z,3.03
2023-04-19T09:46:36.289Z,3.17
2023-04-19T09:49:27.796Z,3.00
2023-04-19T09:51:57.797Z,3.00
2023-04-19T09:54:28.875Z,2.72
2023-04-19T09:56:57.468Z,2.80
2023-04-19T09:59:25.313Z,2.70
2023-04-19T10:01:54.835Z,2.65
2023-04-19T10:04:33.561Z,2.72
2023-04-19T10:09:49.612Z,2.50
2023-04-19T10:12:46.169Z,2.78
2023-04-19T10:15:10.773Z,2.70
2023-04-19T10:17:37.719Z,2.38
2023-04-19T10:20:13.337Z,2.15
2023-04-19T10:22:40.256Z,2.40
2023-04-19T10:25:13.776Z,2.65
2023-04-19T10:27:41.991Z,2.30
2023-04-19T10:30:18.647Z,2.55
2023-04-19T10:32:52.214Z,2.80
2023-04-19T10:35:29.709Z,2.60
2023-04-19T10:38:04.390Z,2.53
2023-04-19T10:40:57.801Z,2.00
2023-04-19T10:43:25.790Z,2.47
2023-04-19T10:45:52.790Z,2.25
2023-04-19T10:48:33.564Z,2.35
2023-04-19T10:51:17.015Z,2.65
2023-04-19T10:53:59.556Z,2.22
2023-04-19T10:56:35.205Z,2.20
2023-04-19T10:59:02.287Z,2.38
2023-04-19T11:01:45.152Z,2.38
2023-04-19T11:04:12.997Z,2.25
2023-04-19T11:07:01.161Z,2.00
2023-04-19T11:09:38.911Z,2.10
2023-04-19T11:12:08.705Z,2.00
2023-04-19T11:14:43.603Z,2.30
2023-04-19T11:17:28.178Z,2.22
2023-04-19T11:19:56.862Z,2.58
2023-04-19T11:22:30.117Z,2.20
2023-04-19T11:24:56.808Z,2.60
2023-04-19T11:27:23.456Z,2.53
2023-04-19T11:29:50.051Z,2.30
2023-04-19T11:32:16.760Z,2.40
2023-04-19T11:34:43.342Z,2.33
2023-04-19T11:37:11.121Z,2.10
2023-04-19T11:39:46.201Z,2.10
2023-04-19T11:42:18.544Z,2.00
2023-04-19T11:44:50.548Z,2.22
2023-04-19T11:47:17.907Z,2.08
2023-04-19T11:49:44.585Z,2.10
2023-04-19T11:52:11.190Z,2.40
2023-04-19T11:54:37.955Z,2.38
2023-04-19T11:57:06.880Z,2.30
2023-04-19T11:59:35.660Z,3.25
2023-04-19T12:02:07.741Z,2.30
2023-04-19T12:04:35.318Z,2.15
2023-04-19T12:07:10.057Z,2.05
2023-04-19T12:09:37.062Z,2.30
2023-04-19T12:12:04.136Z,1.90
2023-04-19T12:14:31.697Z,1.80
2023-04-19T12:17:12.310Z,2.38
2023-04-19T12:19:44.251Z,2.00
2023-04-19T12:22:16.556Z,2.28
2023-04-19T12:24:43.732Z,2.40
2023-04-19T12:27:11.435Z,2.30
2023-04-19T12:29:39.177Z,2.15
2023-04-19T12:32:06.450Z,2.30
2023-04-19T12:34:33.264Z,2.20
2023-04-19T12:36:59.909Z,1.90
2023-04-19T12:39:26.531Z,2.10
2023-04-19T12:41:53.150Z,2.20
2023-04-19T12:44:19.748Z,2.50
2023-04-19T12:46:46.572Z,2.00
2023-04-19T12:49:13.191Z,2.30
2023-04-19T12:51:39.817Z,2.17
2023-04-19T12:54:07.750Z,2.15
2023-04-19T12:56:35.249Z,2.22
2023-04-19T12:59:01.868Z,2.10
2023-04-19T13:01:28.445Z,2.17
2023-04-19T13:03:58.123Z,2.50
2023-04-19T13:06:26.407Z,2.20
2023-04-19T13:08:55.026Z,2.20
2023-04-19T13:11:23.611Z,1.88
2023-04-19T13:13:51.966Z,2.20
2023-04-19T13:16:19.267Z,2.20
2023-04-19T13:18:45.923Z,2.72
2023-04-19T13:21:12.514Z,2.42
2023-04-19T13:23:39.114Z,2.13
2023-04-19T13:26:06.630Z,2.38
2023-04-19T13:28:35.974Z,2.00
2023-04-19T13:31:06.349Z,2.25
2023-04-19T13:33:33.329Z,2.60
2023-04-19T13:36:00.184Z,2.40
2023-04-19T13:38:26.784Z,2.50
2023-04-19T13:40:53.446Z,2.85
2023-04-19T13:43:20.168Z,3.15
2023-04-19T13:45:46.742Z,2.58
2023-04-19T13:48:13.380Z,2.53
2023-04-19T13:50:39.979Z,2.50
2023-04-19T13:53:06.706Z,2.45
2023-04-19T13:55:33.537Z,2.78
2023-04-19T13:58:00.314Z,2.60
2023-04-19T14:00:27.119Z,2.70
2023-04-19T14:02:55.192Z,2.65
2023-04-19T14:05:21.901Z,2.42
2023-04-19T14:07:48.573Z,2.78
2023-04-19T14:10:15.127Z,2.80
2023-04-19T14:15:08.671Z,2.67
2023-04-19T14:17:36.094Z,2.92
2023-04-19T14:20:05.657Z,2.88
2023-04-19T14:22:34.138Z,3.40
2023-04-19T14:25:00.713Z,2.50
2023-04-19T14:27:27.326Z,2.60
2023-04-19T14:29:53.907Z,2.55
2023-04-19T14:34:55.014Z,3.00
2023-04-19T14:37:22.395Z,2.60
2023-04-19T14:39:48.971Z,3.33
2023-04-19T14:44:42.110Z,2.50
2023-04-19T14:49:35.325Z,2.78
2023-04-19T14:52:01.901Z,2.67
2023-04-19T14:56:55.646Z,2.55
2023-04-19T15:01:48.878Z,2.53
2023-04-19T15:04:16.610Z,2.80
2023-04-19T15:06:43.398Z,3.00
2023-04-19T15:09:10.450Z,2.88
2023-04-19T15:11:37.108Z,2.90
2023-04-19T15:14:03.686Z,2.83
2023-04-19T15:18:57.311Z,3.15
2023-04-19T15:21:24.806Z,2.70
2023-04-19T15:23:51.596Z,2.63
2023-04-19T15:28:44.781Z,3.00
2023-04-19T15:31:11.598Z,3.00
2023-04-19T15:33:38.279Z,2.70
2023-04-19T15:38:32.795Z,2.85
2023-04-19T15:41:01.378Z,2.63
2023-04-19T15:43:28.155Z,2.78
2023-04-19T15:45:55.053Z,2.60
2023-04-19T15:48:22.004Z,2.63
2023-04-19T15:50:48.592Z,2.78
2023-04-19T15:55:42.166Z,2.53
2023-04-19T16:00:35.646Z,2.80
2023-04-19T16:03:03.044Z,2.78
2023-04-19T16:05:29.976Z,3.13
2023-04-19T16:08:07.537Z,2.55
2023-04-19T16:10:34.368Z,2.78
2023-04-19T16:13:01.580Z,3.20
2023-04-19T16:15:28.389Z,2.85
2023-04-19T16:17:55.104Z,3.10
2023-04-19T16:20:21.921Z,3.50
2023-04-19T16:22:48.707Z,3.17
2023-04-19T16:25:16.682Z,2.63
2023-04-19T16:27:44.756Z,3.78
2023-04-19T16:30:12.653Z,3.63
2023-04-19T16:32:40.067Z,3.22
2023-04-19T16:35:08.229Z,3.30
2023-04-19T16:37:35.376Z,3.00
2023-04-19T16:40:08.327Z,3.10
2023-04-19T16:42:36.088Z,3.28
2023-04-19T16:45:03.728Z,2.63
2023-04-19T16:47:31.176Z,3.13
2023-04-19T16:49:58.701Z,3.00
2023-04-19T16:52:26.616Z,2.92
2023-04-19T16:54:53.573Z,2.88
2023-04-19T16:57:20.784Z,3.70
2023-04-19T16:59:47.951Z,4.07
2023-04-19T17:02:14.955Z,3.45
2023-04-19T17:04:42.289Z,3.30
2023-04-19T17:07:09.208Z,3.10
2023-04-19T17:09:36.349Z,3.45
2023-04-19T17:12:03.498Z,3.55
2023-04-19T17:14:31.093Z,3.05
2023-04-19T17:16:57.787Z,3.63
2023-04-19T17:21:51.135Z,3.67
2023-04-19T17:24:18.318Z,4.07
2023-04-19T17:26:44.980Z,4.03
2023-04-19T17:31:38.227Z,4.20
2023-04-19T17:36:32.041Z,3.47
2023-04-19T17:38:58.794Z,3.63
2023-04-19T17:41:25.454Z,3.47
2023-04-19T17:46:19.389Z,3.63
2023-04-19T17:48:46.342Z,4.10
2023-04-19T17:51:12.949Z,3.80
2023-04-19T17:56:06.274Z,3.97
2023-04-19T18:01:00.845Z,3.50
2023-04-19T18:03:27.629Z,3.53
2023-04-19T18:05:54.280Z,3.80
2023-04-19T18:10:47.636Z,3.75
2023-04-19T18:15:40.826Z,3.53
2023-04-19T18:20:34.108Z,3.88
2023-04-19T18:25:35.228Z,4.03
2023-04-19T18:28:02.107Z,4.20
2023-04-19T18:30:28.780Z,4.13
2023-04-19T18:35:22.307Z,4.10
2023-04-19T18:37:48.958Z,4.20
2023-04-19T18:42:42.277Z,4.05
2023-04-19T18:45:09.456Z,3.90
2023-04-19T18:47:36.153Z,4.55
2023-04-19T18:52:35.821Z,3.80
2023-04-19T18:55:03.368Z,3.78
2023-04-19T18:57:34.475Z,3.38
2023-04-19T19:00:01.807Z,4.20
2023-04-19T19:02:28.491Z,3.63
2023-04-19T19:07:36.288Z,3.80
2023-04-19T19:10:17.038Z,3.70
2023-04-19T19:12:47.635Z,3.63
2023-04-19T19:15:14.918Z,4.03
2023-04-19T19:17:41.672Z,4.07
2023-04-19T19:20:10.198Z,3.85
2023-04-19T19:22:36.880Z,4.00
2023-04-19T19:27:30.397Z,4.03
2023-04-19T19:32:25.650Z,3.47
2023-04-19T19:37:28.547Z,4.25
2023-04-19T19:39:56.907Z,4.40
